createdAt,value
2018-09-09T00:01:12.250Z,100224.58
2018-09-09T00:04:17.176Z,100220.81
2018-09-09T00:07:21.945Z,100238.38
2018-09-09T00:10:26.882Z,100245.43
2018-09-09T00:13:31.966Z,100246.78
2018-09-09T00:16:36.774Z,100249.30
2018-09-09T00:19:41.615Z,100250.45
2018-09-09T00:22:46.781Z,100248.89
2018-09-09T00:25:51.690Z,100250.34
2018-09-09T00:28:56.555Z,100255.14
2018-09-09T00:32:01.633Z,100250.85
2018-09-09T00:35:06.761Z,100253.06
2018-09-09T00:38:11.593Z,100252.62
2018-09-09T00:41:16.453Z,100255.45
2018-09-09T00:44:21.421Z,100253.28
2018-09-09T00:47:26.275Z,100246.78
2018-09-09T00:50:36.367Z,100246.59
2018-09-09T00:53:45.044Z,100245.77
2018-09-09T00:56:49.912Z,100249.63
2018-09-09T00:59:54.948Z,100240.55
2018-09-09T01:02:59.825Z,100245.84
2018-09-09T01:06:05.225Z,100249.63
2018-09-09T01:09:11.392Z,100246.52
2018-09-09T01:12:16.359Z,100247.26
2018-09-09T01:15:21.252Z,100240.32
2018-09-09T01:18:26.057Z,100235.87
2018-09-09T01:21:31.005Z,100234.93
2018-09-09T01:24:35.870Z,100227.27
2018-09-09T01:27:40.799Z,100230.67
2018-09-09T01:30:45.657Z,100224.73
2018-09-09T01:33:50.435Z,100230.84
2018-09-09T01:36:55.221Z,100228.59
2018-09-09T01:40:00.136Z,100243.80
2018-09-09T01:43:05.008Z,100242.23
2018-09-09T01:46:09.898Z,100246.98
2018-09-09T01:49:14.749Z,100245.27
2018-09-09T01:52:19.660Z,100246.42
2018-09-09T01:55:24.525Z,100240.52
2018-09-09T01:58:29.474Z,100244.32
2018-09-09T02:01:34.463Z,100241.58
2018-09-09T02:04:39.235Z,100241.53
2018-09-09T02:07:44.110Z,100238.31
2018-09-09T02:10:49.049Z,100243.28
2018-09-09T02:13:53.795Z,100243.55
2018-09-09T02:16:58.812Z,100248.88
2018-09-09T02:20:03.636Z,100244.66
2018-09-09T02:23:08.734Z,100246.59
2018-09-09T02:26:13.734Z,100251.05
2018-09-09T02:29:18.659Z,100251.48
2018-09-09T02:32:23.570Z,100258.75
2018-09-09T02:35:28.547Z,100259.23
2018-09-09T02:38:33.314Z,100258.45
2018-09-09T02:41:39.000Z,100259.23
2018-09-09T02:44:43.860Z,100264.84
2018-09-09T02:47:48.696Z,100264.51
2018-09-09T02:50:53.593Z,100261.66
2018-09-09T02:53:58.426Z,100262.77
2018-09-09T02:57:03.240Z,100263.25
2018-09-09T03:00:08.181Z,100259.34
2018-09-09T03:03:12.973Z,100259.17
2018-09-09T03:06:17.881Z,100258.11
2018-09-09T03:09:22.670Z,100257.17
2018-09-09T03:12:27.546Z,100258.77
2018-09-09T03:15:32.419Z,100260.71
2018-09-09T03:18:37.556Z,100265.78
2018-09-09T03:21:42.375Z,100262.55
2018-09-09T03:24:47.250Z,100259.06
2018-09-09T03:27:52.164Z,100258.72
2018-09-09T03:30:57.055Z,100264.31
2018-09-09T03:34:01.787Z,100266.40
2018-09-09T03:37:07.080Z,100264.56
2018-09-09T03:40:12.018Z,100261.08
2018-09-09T03:43:17.042Z,100253.44
2018-09-09T03:46:21.876Z,100259.61
2018-09-09T03:49:26.750Z,100262.20
2018-09-09T03:52:31.603Z,100261.69
2018-09-09T03:55:36.812Z,100271.38
2018-09-09T03:58:41.644Z,100264.21
2018-09-09T04:01:46.506Z,100269.52
2018-09-09T04:04:51.331Z,100269.47
2018-09-09T04:07:56.209Z,100267.28
2018-09-09T04:11:05.181Z,100268.55
2018-09-09T04:14:10.081Z,100268.82
2018-09-09T04:17:14.874Z,100265.53
2018-09-09T04:20:19.788Z,100262.51
2018-09-09T04:23:24.527Z,100265.11
2018-09-09T04:26:29.453Z,100264.98
2018-09-09T04:29:34.248Z,100269.02
2018-09-09T04:32:39.220Z,100274.25
2018-09-09T04:35:44.243Z,100284.77
2018-09-09T04:38:49.108Z,100283.81
2018-09-09T04:41:54.094Z,100287.20
2018-09-09T04:44:58.912Z,100278.95
2018-09-09T04:48:03.849Z,100281.05
2018-09-09T04:51:09.069Z,100283.69
2018-09-09T04:54:14.064Z,100279.38
2018-09-09T04:57:18.861Z,100288.46
2018-09-09T05:00:23.689Z,100286.41
2018-09-09T05:03:28.629Z,100289.31
2018-09-09T05:06:33.430Z,100290.78
2018-09-09T05:09:38.384Z,100285.52
2018-09-09T05:12:43.151Z,100286.23
2018-09-09T05:15:48.092Z,100293.33
2018-09-09T05:18:52.890Z,100298.41
2018-09-09T05:21:58.039Z,100293.91
2018-09-09T05:25:03.025Z,100304.56
2018-09-09T05:28:08.003Z,100309.47
2018-09-09T05:31:12.863Z,100307.56
2018-09-09T05:34:17.744Z,100312.36
2018-09-09T05:37:22.648Z,100316.28
2018-09-09T05:40:27.530Z,100316.47
2018-09-09T05:43:32.362Z,100307.53
2018-09-09T05:46:37.303Z,100314.09
2018-09-09T05:49:42.054Z,100314.64
2018-09-09T05:52:47.004Z,100319.59
2018-09-09T05:55:51.903Z,100322.06
2018-09-09T05:58:56.956Z,100324.45
2018-09-09T06:02:01.822Z,100325.14
2018-09-09T06:05:07.119Z,100323.68
2018-09-09T06:08:11.952Z,100332.30
2018-09-09T06:11:16.851Z,100327.39
2018-09-09T06:14:21.648Z,100337.23
2018-09-09T06:17:26.557Z,100335.93
2018-09-09T06:20:31.499Z,100336.98
2018-09-09T06:23:36.344Z,100336.91
2018-09-09T06:26:41.137Z,100335.93
2018-09-09T06:29:45.965Z,100333.91
2018-09-09T06:32:50.919Z,100344.89
2018-09-09T06:35:55.892Z,100335.56
2018-09-09T06:39:00.869Z,100319.22
2018-09-09T06:42:05.797Z,100318.40
2018-09-09T06:45:10.688Z,100319.64
2018-09-09T06:48:15.468Z,100327.12
2018-09-09T06:51:20.388Z,100322.89
2018-09-09T06:54:25.257Z,100319.31
2018-09-09T06:57:30.185Z,100309.05
2018-09-09T07:00:35.277Z,100314.48
2018-09-09T07:03:40.209Z,100313.41
2018-09-09T07:06:45.033Z,100322.91
2018-09-09T07:09:49.878Z,100334.58
2018-09-09T07:12:54.789Z,100337.03
2018-09-09T07:15:59.767Z,100335.59
2018-09-09T07:19:04.708Z,100335.98
2018-09-09T07:22:09.580Z,100332.61
2018-09-09T07:25:14.434Z,100336.19
2018-09-09T07:28:19.280Z,100336.55
2018-09-09T07:31:24.188Z,100342.17
2018-09-09T07:34:29.042Z,100339.27
2018-09-09T07:37:33.951Z,100337.95
2018-09-09T07:40:38.894Z,100338.23
2018-09-09T07:43:43.788Z,100337.06
2018-09-09T07:46:48.656Z,100328.86
2018-09-09T07:49:53.597Z,100338.56
2018-09-09T07:52:58.466Z,100338.70
2018-09-09T07:56:03.355Z,100340.69
2018-09-09T07:59:08.331Z,100338.28
2018-09-09T08:02:13.218Z,100332.28
2018-09-09T08:05:18.103Z,100328.78
2018-09-09T08:08:22.961Z,100341.01
2018-09-09T08:11:33.004Z,100328.13
2018-09-09T08:14:37.880Z,100331.80
2018-09-09T08:17:42.879Z,100337.72
2018-09-09T08:20:47.882Z,100339.37
2018-09-09T08:23:52.804Z,100340.20
2018-09-09T08:26:57.744Z,100340.62
2018-09-09T08:30:02.681Z,100343.31
2018-09-09T08:33:07.544Z,100347.06
2018-09-09T08:36:12.664Z,100344.56
2018-09-09T08:39:17.522Z,100346.52
2018-09-09T08:42:22.369Z,100350.36
2018-09-09T08:45:27.319Z,100355.50
2018-09-09T08:48:32.105Z,100351.59
2018-09-09T08:51:37.045Z,100353.14
2018-09-09T08:54:41.952Z,100347.48
2018-09-09T08:57:46.836Z,100342.03
2018-09-09T09:00:51.816Z,100343.55
2018-09-09T09:03:56.637Z,100345.58
2018-09-09T09:07:01.577Z,100344.17
2018-09-09T09:10:06.755Z,100335.17
2018-09-09T09:13:11.916Z,100338.55
2018-09-09T09:16:16.800Z,100338.70
2018-09-09T09:19:21.635Z,100344.85
2018-09-09T09:22:26.447Z,100338.51
2018-09-09T09:25:31.649Z,100333.05
2018-09-09T09:28:36.537Z,100337.94
2018-09-09T09:31:41.389Z,100324.23
2018-09-09T09:34:46.221Z,100313.42
2018-09-09T09:37:51.155Z,100312.09
2018-09-09T09:40:56.233Z,100309.77
2018-09-09T09:44:01.116Z,100304.02
2018-09-09T09:47:06.097Z,100304.38
2018-09-09T09:50:11.068Z,100301.14
2018-09-09T09:53:16.179Z,100300.45
2018-09-09T09:56:21.047Z,100299.08
2018-09-09T09:59:25.936Z,100293.29
2018-09-09T10:02:30.863Z,100293.03
2018-09-09T10:05:36.422Z,100298.52
2018-09-09T10:08:41.276Z,100292.95
2018-09-09T10:11:46.094Z,100279.70
2018-09-09T10:14:51.000Z,100271.97
2018-09-09T10:17:55.920Z,100284.55
2018-09-09T10:21:00.872Z,100282.33
2018-09-09T10:24:05.844Z,100268.39
2018-09-09T10:27:10.749Z,100259.05
2018-09-09T10:30:15.628Z,100264.35
2018-09-09T10:33:20.555Z,100264.26
2018-09-09T10:36:25.522Z,100264.95
2018-09-09T10:39:30.325Z,100266.52
2018-09-09T10:42:35.315Z,100264.17
2018-09-09T10:45:40.185Z,100267.09
2018-09-09T10:48:45.933Z,100262.48
2018-09-09T10:51:50.827Z,100262.13
2018-09-09T10:54:55.853Z,100259.73
2018-09-09T10:58:00.795Z,100254.84
2018-09-09T11:01:05.922Z,100252.31
2018-09-09T11:04:10.841Z,100258.76
2018-09-09T11:07:15.774Z,100258.28
2018-09-09T11:10:20.593Z,100256.75
2018-09-09T11:13:25.456Z,100263.59
2018-09-09T11:16:30.327Z,100267.48
2018-09-09T11:19:35.160Z,100271.33
2018-09-09T11:22:40.049Z,100272.22
2018-09-09T11:25:44.933Z,100270.66
2018-09-09T11:28:49.863Z,100272.25
2018-09-09T11:31:54.765Z,100264.88
2018-09-09T11:34:59.692Z,100263.08
2018-09-09T11:38:04.736Z,100261.07
2018-09-09T11:41:09.611Z,100268.38
2018-09-09T11:44:14.597Z,100262.72
2018-09-09T11:47:19.553Z,100264.72
2018-09-09T11:50:24.472Z,100262.05
2018-09-09T11:53:29.423Z,100265.48
2018-09-09T11:56:34.502Z,100263.70
2018-09-09T11:59:39.487Z,100260.32
2018-09-09T12:02:44.622Z,100259.98
2018-09-09T12:05:49.589Z,100261.80
2018-09-09T12:08:54.486Z,100253.53
2018-09-09T12:11:59.583Z,100248.17
2018-09-09T12:15:04.485Z,100251.00
2018-09-09T12:18:09.610Z,100249.91
2018-09-09T12:21:14.613Z,100247.73
2018-09-09T12:24:19.505Z,100237.70
2018-09-09T12:27:24.415Z,100250.63
2018-09-09T12:30:29.333Z,100243.59
2018-09-09T12:33:34.261Z,100245.41
2018-09-09T12:36:39.271Z,100251.03
2018-09-09T12:39:44.419Z,100235.17
2018-09-09T12:42:53.631Z,100230.95
2018-09-09T12:46:03.551Z,100224.91
2018-09-09T12:49:08.976Z,100223.48
2018-09-09T12:52:13.825Z,100223.06
2018-09-09T12:55:18.750Z,100219.44
2018-09-09T12:58:23.688Z,100217.09
2018-09-09T13:01:29.005Z,100217.83
2018-09-09T13:04:34.173Z,100217.44
2018-09-09T13:07:39.156Z,100218.31
2018-09-09T13:10:44.160Z,100220.42
2018-09-09T13:13:49.005Z,100217.27
2018-09-09T13:16:53.922Z,100218.70
2018-09-09T13:19:58.770Z,100211.48
2018-09-09T13:23:03.879Z,100223.55
2018-09-09T13:26:08.883Z,100219.48
2018-09-09T13:29:13.887Z,100206.61
2018-09-09T13:32:19.068Z,100205.38
2018-09-09T13:35:23.963Z,100200.03
2018-09-09T13:38:29.021Z,100207.53
2018-09-09T13:41:34.180Z,100207.69
2018-09-09T13:44:39.857Z,100209.10
2018-09-09T13:47:45.206Z,100210.29
2018-09-09T13:50:50.162Z,100214.20
2018-09-09T13:53:55.232Z,100200.05
2018-09-09T13:57:00.301Z,100200.19
2018-09-09T14:00:05.512Z,100203.04
2018-09-09T14:03:10.556Z,100204.50
2018-09-09T14:06:15.474Z,100198.02
2018-09-09T14:09:20.422Z,100193.20
2018-09-09T14:12:25.320Z,100188.77
2018-09-09T14:15:30.365Z,100189.64
2018-09-09T14:18:35.363Z,100186.39
2018-09-09T14:21:40.310Z,100185.70
2018-09-09T14:24:45.258Z,100182.17
2018-09-09T14:27:50.299Z,100187.80
2018-09-09T14:30:55.508Z,100190.09
2018-09-09T14:34:00.545Z,100188.64
2018-09-09T14:37:05.522Z,100192.98
2018-09-09T14:40:10.537Z,100182.58
2018-09-09T14:43:15.592Z,100187.85
2018-09-09T14:46:20.558Z,100194.88
2018-09-09T14:49:25.486Z,100188.52
2018-09-09T14:52:30.581Z,100190.66
2018-09-09T14:55:35.426Z,100189.81
2018-09-09T14:58:40.534Z,100194.52
2018-09-09T15:01:45.429Z,100188.53
2018-09-09T15:04:51.295Z,100198.09
2018-09-09T15:07:56.506Z,100191.14
2018-09-09T15:11:01.392Z,100183.09
2018-09-09T15:14:06.627Z,100172.87
2018-09-09T15:17:11.623Z,100175.13
2018-09-09T15:20:16.676Z,100176.46
2018-09-09T15:23:21.666Z,100171.94
2018-09-09T15:26:26.971Z,100171.20
2018-09-09T15:29:34.835Z,100169.05
2018-09-09T15:32:39.866Z,100164.23
2018-09-09T15:35:44.799Z,100169.52
2018-09-09T15:38:50.096Z,100171.30
2018-09-09T15:41:55.082Z,100158.98
2018-09-09T15:45:00.128Z,100166.86
2018-09-09T15:48:05.557Z,100166.70
2018-09-09T15:51:10.601Z,100164.77
2018-09-09T15:54:16.095Z,100161.02
2018-09-09T16:01:33.204Z,100159.09
2018-09-09T16:04:38.221Z,100157.58
2018-09-09T16:07:43.192Z,100163.64
2018-09-09T16:10:48.166Z,100162.87
2018-09-09T16:13:53.161Z,100166.09
2018-09-09T16:16:58.350Z,100163.98
2018-09-09T16:20:03.352Z,100165.05
2018-09-09T16:23:08.320Z,100161.85
2018-09-09T16:26:13.244Z,100165.91
2018-09-09T16:29:18.232Z,100164.92
2018-09-09T16:32:23.232Z,100166.17
2018-09-09T16:35:28.602Z,100165.31
2018-09-09T16:38:33.635Z,100172.89
2018-09-09T16:41:38.813Z,100175.44
2018-09-09T16:44:43.697Z,100173.84
2018-09-09T16:47:49.026Z,100167.74
2018-09-09T16:50:54.850Z,100174.41
2018-09-09T16:53:59.800Z,100170.20
2018-09-09T16:57:04.815Z,100176.11
2018-09-09T17:00:09.791Z,100181.20
2018-09-09T17:03:14.773Z,100187.31
2018-09-09T17:06:19.703Z,100183.29
2018-09-09T17:09:24.551Z,100178.66
2018-09-09T17:12:29.536Z,100177.86
2018-09-09T17:15:34.416Z,100187.45
2018-09-09T17:18:39.378Z,100185.00
2018-09-09T17:21:44.263Z,100180.30
2018-09-09T17:24:49.200Z,100179.48
2018-09-09T17:27:54.180Z,100187.14
2018-09-09T17:30:59.311Z,100193.37
2018-09-09T17:34:04.262Z,100197.95
2018-09-09T17:37:09.224Z,100203.16
2018-09-09T17:40:14.211Z,100206.25
2018-09-09T17:43:19.190Z,100207.53
2018-09-09T17:46:24.273Z,100202.52
2018-09-09T17:49:29.221Z,100208.38
2018-09-09T17:52:34.806Z,100218.08
2018-09-09T17:55:39.765Z,100217.33
2018-09-09T17:58:44.695Z,100224.34
2018-09-09T18:01:49.727Z,100227.13
2018-09-09T18:04:54.563Z,100223.98
2018-09-09T18:07:59.441Z,100229.21
2018-09-09T18:11:04.653Z,100234.85
2018-09-09T18:14:09.453Z,100241.22
2018-09-09T18:17:27.974Z,100251.30
2018-09-09T18:20:34.446Z,100240.94
2018-09-09T18:23:39.414Z,100243.32
2018-09-09T18:26:44.976Z,100242.83
2018-09-09T18:29:49.971Z,100246.64
2018-09-09T18:32:54.858Z,100250.72
2018-09-09T18:36:03.989Z,100258.31
2018-09-09T18:39:10.704Z,100256.89
2018-09-09T18:42:26.415Z,100253.27
2018-09-09T18:45:31.376Z,100251.91
2018-09-09T18:48:37.071Z,100258.67
2018-09-09T18:51:42.154Z,100256.05
2018-09-09T18:54:48.290Z,100271.34
2018-09-09T18:57:53.647Z,100266.38
2018-09-09T19:00:58.606Z,100264.34
2018-09-09T19:04:03.791Z,100266.43
2018-09-09T19:07:08.864Z,100270.28
2018-09-09T19:10:13.944Z,100261.42
2018-09-09T19:13:19.068Z,100259.80
2018-09-09T19:16:24.082Z,100264.31
2018-09-09T19:19:29.293Z,100268.22
2018-09-09T19:22:34.395Z,100263.75
2018-09-09T19:25:40.184Z,100267.21
2018-09-09T19:28:45.486Z,100276.95
2018-09-09T19:31:50.685Z,100269.67
2018-09-09T19:34:55.848Z,100265.91
2018-09-09T19:38:01.195Z,100269.97
2018-09-09T19:41:06.830Z,100274.05
2018-09-09T19:44:12.039Z,100270.73
2018-09-09T19:47:17.028Z,100275.77
2018-09-09T19:50:21.979Z,100286.48
2018-09-09T19:53:29.295Z,100288.13
2018-09-09T19:56:34.387Z,100288.13
2018-09-09T19:59:39.404Z,100294.67
2018-09-09T20:02:44.593Z,100292.28
2018-09-09T20:05:51.004Z,100293.92
2018-09-09T20:08:56.155Z,100291.21
2018-09-09T20:12:01.607Z,100293.10
2018-09-09T20:15:06.981Z,100299.42
2018-09-09T20:18:12.234Z,100304.42
2018-09-09T20:21:17.480Z,100304.89
2018-09-09T20:24:22.940Z,100306.35
2018-09-09T20:27:28.040Z,100300.68
2018-09-09T20:30:33.383Z,100309.58
2018-09-09T20:33:38.600Z,100305.28
2018-09-09T20:36:43.816Z,100314.84
2018-09-09T20:39:49.715Z,100318.23
2018-09-09T20:42:54.812Z,100314.70
2018-09-09T20:45:59.929Z,100314.75
2018-09-09T20:49:04.947Z,100320.91
2018-09-09T20:52:10.028Z,100325.83
2018-09-09T20:55:14.952Z,100324.02
2018-09-09T20:58:19.993Z,100334.80
2018-09-09T21:01:25.209Z,100327.69
2018-09-09T21:04:30.384Z,100341.73
2018-09-09T21:07:35.423Z,100342.49
2018-09-09T21:10:40.360Z,100328.74
2018-09-09T21:13:46.070Z,100337.08
2018-09-09T21:16:50.912Z,100340.77
2018-09-09T21:19:55.796Z,100340.53
2018-09-09T21:23:00.699Z,100341.78
2018-09-09T21:26:06.371Z,100335.85
2018-09-09T21:29:11.292Z,100336.82
2018-09-09T21:32:16.557Z,100336.52
2018-09-09T21:35:21.693Z,100335.08
2018-09-09T21:38:26.593Z,100331.75
2018-09-09T21:41:31.463Z,100332.18
2018-09-09T21:44:36.359Z,100338.25
2018-09-09T21:47:41.365Z,100331.59
2018-09-09T21:50:46.288Z,100337.42
2018-09-09T21:53:51.168Z,100333.70
2018-09-09T21:56:56.995Z,100333.61
2018-09-09T22:00:02.876Z,100333.08
2018-09-09T22:03:07.969Z,100333.50
2018-09-09T22:06:12.866Z,100333.93
2018-09-09T22:09:17.789Z,100341.21
2018-09-09T22:12:22.758Z,100340.25
2018-09-09T22:15:27.654Z,100341.64
2018-09-09T22:18:32.564Z,100345.17
2018-09-09T22:21:37.473Z,100338.75
2018-09-09T22:24:42.337Z,100342.17
2018-09-09T22:27:47.320Z,100342.89
2018-09-09T22:30:52.191Z,100337.00
2018-09-09T22:33:57.219Z,100337.48
2018-09-09T22:37:02.049Z,100336.89
2018-09-09T22:40:07.030Z,100338.95
2018-09-09T22:43:11.875Z,100337.28
2018-09-09T22:46:16.678Z,100342.25
2018-09-09T22:49:21.602Z,100339.97
2018-09-09T22:52:26.466Z,100335.92
2018-09-09T22:55:31.333Z,100342.86
2018-09-09T22:58:36.176Z,100343.69
2018-09-09T23:01:41.148Z,100343.69
2018-09-09T23:04:46.021Z,100342.45
2018-09-09T23:07:50.906Z,100341.10
2018-09-09T23:10:55.809Z,100334.35
2018-09-09T23:14:00.685Z,100343.80
2018-09-09T23:17:05.580Z,100346.77
2018-09-09T23:20:10.429Z,100339.79
2018-09-09T23:23:15.326Z,100337.17
2018-09-09T23:26:20.162Z,100341.55
2018-09-09T23:29:25.009Z,100342.44
2018-09-09T23:32:29.856Z,100335.06
2018-09-09T23:35:34.680Z,100341.67
2018-09-09T23:38:39.595Z,100339.73
2018-09-09T23:41:44.378Z,100341.35
2018-09-09T23:44:49.426Z,100338.35
2018-09-09T23:47:54.285Z,100336.78
2018-09-09T23:50:59.123Z,100330.44
2018-09-09T23:54:04.004Z,100332.61
2018-09-09T23:57:08.888Z,100339.36
